createdAt,value
2022-10-31T00:00:49.921Z,1.15
2022-10-31T00:03:17.842Z,1.20
2022-10-31T00:05:46.151Z,1.20
2022-10-31T00:08:13.350Z,1.38
2022-10-31T00:10:40.930Z,1.00
2022-10-31T00:13:09.104Z,1.30
2022-10-31T00:15:37.057Z,1.13
2022-10-31T00:18:04.937Z,1.40
2022-10-31T00:20:32.362Z,1.00
2022-10-31T00:23:00.271Z,1.10
2022-10-31T00:25:28.091Z,1.60
2022-10-31T00:27:56.277Z,1.58
2022-10-31T00:30:24.045Z,1.05
2022-10-31T00:32:51.362Z,1.38
2022-10-31T00:35:18.626Z,1.20
2022-10-31T00:37:45.833Z,1.30
2022-10-31T00:40:13.230Z,1.05
2022-10-31T00:42:43.653Z,1.80
2022-10-31T00:45:11.633Z,1.50
2022-10-31T00:47:39.065Z,1.67
2022-10-31T00:50:06.906Z,1.70
2022-10-31T00:52:34.257Z,1.02
2022-10-31T00:55:01.618Z,1.35
2022-10-31T00:57:28.854Z,1.50
2022-10-31T00:59:56.032Z,1.13
2022-10-31T01:02:23.334Z,0.95
2022-10-31T01:04:50.667Z,1.30
2022-10-31T01:07:17.852Z,1.58
2022-10-31T01:09:45.030Z,1.08
2022-10-31T01:12:12.226Z,1.05
2022-10-31T01:14:39.526Z,0.98
2022-10-31T01:17:06.755Z,1.08
2022-10-31T01:19:34.023Z,1.65
2022-10-31T01:22:01.266Z,1.10
2022-10-31T01:24:28.516Z,0.90
2022-10-31T01:26:55.753Z,0.93
2022-10-31T01:29:22.942Z,1.27
2022-10-31T01:31:50.158Z,1.50
2022-10-31T01:34:18.618Z,1.15
2022-10-31T01:36:51.969Z,1.23
2022-10-31T01:39:20.300Z,1.10
2022-10-31T01:41:49.906Z,1.05
2022-10-31T01:44:17.295Z,1.20
2022-10-31T01:46:47.560Z,1.30
2022-10-31T01:49:17.535Z,1.05
2022-10-31T01:51:48.458Z,1.20
2022-10-31T01:54:17.659Z,1.25
2022-10-31T01:56:46.351Z,1.30
2022-10-31T01:59:14.651Z,1.15
2022-10-31T02:01:42.436Z,1.25
2022-10-31T02:04:10.095Z,1.25
2022-10-31T02:06:46.698Z,1.20
2022-10-31T02:09:14.272Z,1.65
2022-10-31T02:11:42.003Z,1.60
2022-10-31T02:14:09.263Z,1.65
2022-10-31T02:16:36.450Z,2.55
2022-10-31T02:19:04.230Z,1.45
2022-10-31T02:21:37.486Z,1.13
2022-10-31T02:24:23.315Z,1.58
2022-10-31T02:26:53.586Z,1.10
2022-10-31T02:29:29.824Z,1.48
2022-10-31T02:32:02.279Z,1.10
2022-10-31T02:34:44.565Z,1.25
2022-10-31T02:37:24.306Z,1.40
2022-10-31T02:39:51.486Z,1.73
2022-10-31T02:42:24.816Z,1.30
2022-10-31T02:44:57.299Z,1.73
2022-10-31T02:47:28.210Z,2.25
2022-10-31T02:49:55.389Z,1.10
2022-10-31T02:52:29.382Z,1.52
2022-10-31T02:54:56.751Z,1.92
2022-10-31T02:57:31.179Z,1.38
2022-10-31T03:00:01.656Z,1.42
2022-10-31T03:02:37.760Z,1.38
2022-10-31T03:05:07.301Z,1.02
2022-10-31T03:07:34.443Z,1.17
2022-10-31T03:10:16.795Z,1.40
2022-10-31T03:12:57.360Z,1.50
2022-10-31T03:15:26.938Z,0.98
2022-10-31T03:18:02.626Z,1.33
2022-10-31T03:20:35.526Z,1.70
2022-10-31T03:23:03.250Z,1.63
2022-10-31T03:25:31.248Z,1.45
2022-10-31T03:28:00.246Z,1.45
2022-10-31T03:30:28.158Z,1.17
2022-10-31T03:32:57.544Z,1.00
2022-10-31T03:35:26.273Z,1.20
2022-10-31T03:37:54.590Z,0.85
2022-10-31T03:40:23.667Z,2.00
2022-10-31T03:42:55.222Z,1.58
2022-10-31T03:45:28.297Z,1.45
2022-10-31T03:47:55.848Z,0.95
2022-10-31T03:50:23.603Z,0.85
2022-10-31T03:53:17.356Z,1.38
2022-10-31T03:55:50.807Z,1.30
2022-10-31T03:58:23.160Z,1.13
2022-10-31T04:00:53.158Z,1.02
2022-10-31T04:03:22.904Z,1.50
2022-10-31T04:05:51.632Z,1.05
2022-10-31T04:08:20.801Z,1.50
2022-10-31T04:10:50.160Z,0.90
2022-10-31T04:15:53.512Z,1.05
2022-10-31T04:18:20.755Z,1.13
2022-10-31T04:20:51.717Z,1.10
2022-10-31T04:23:24.231Z,1.23
2022-10-31T04:25:51.556Z,1.38
2022-10-31T04:30:51.013Z,1.30
2022-10-31T04:33:18.605Z,1.30
2022-10-31T04:35:46.002Z,1.48
2022-10-31T04:38:13.212Z,1.20
2022-10-31T04:40:40.495Z,1.15
2022-10-31T04:43:07.829Z,0.98
2022-10-31T04:45:35.047Z,1.08
2022-10-31T04:48:02.709Z,0.93
2022-10-31T04:50:30.201Z,1.00
2022-10-31T04:52:57.443Z,1.58
2022-10-31T04:55:24.766Z,1.10
2022-10-31T04:57:52.172Z,1.50
2022-10-31T05:00:20.864Z,1.05
2022-10-31T05:02:48.788Z,0.82
2022-10-31T05:05:17.019Z,1.63
2022-10-31T05:07:45.563Z,0.98
2022-10-31T05:10:13.810Z,1.33
2022-10-31T05:12:48.019Z,1.67
2022-10-31T05:15:15.573Z,1.17
2022-10-31T05:17:42.839Z,1.10
2022-10-31T05:20:12.419Z,1.27
2022-10-31T05:22:46.026Z,1.10
2022-10-31T05:25:13.417Z,1.40
2022-10-31T05:27:45.082Z,1.30
2022-10-31T05:30:15.685Z,1.55
2022-10-31T05:32:43.726Z,1.42
2022-10-31T05:35:12.895Z,0.82
2022-10-31T05:37:40.195Z,1.00
2022-10-31T05:40:08.650Z,1.40
2022-10-31T05:42:36.282Z,1.13
2022-10-31T05:45:03.523Z,1.30
2022-10-31T05:47:30.692Z,1.33
2022-10-31T05:49:57.922Z,1.30
2022-10-31T05:52:25.233Z,0.90
2022-10-31T05:54:52.468Z,1.02
2022-10-31T05:57:19.652Z,1.10
2022-10-31T05:59:51.011Z,1.27
2022-10-31T06:02:21.654Z,1.00
2022-10-31T06:04:49.386Z,1.33
2022-10-31T06:07:17.031Z,1.27
2022-10-31T06:09:44.411Z,1.25
2022-10-31T06:12:11.654Z,1.25
2022-10-31T06:14:40.112Z,0.98
2022-10-31T06:17:07.271Z,1.20
2022-10-31T06:19:34.523Z,1.10
2022-10-31T06:22:01.717Z,1.05
2022-10-31T06:24:28.924Z,1.15
2022-10-31T06:26:56.182Z,1.20
2022-10-31T06:29:23.673Z,2.22
2022-10-31T06:31:52.925Z,1.10
2022-10-31T06:34:20.170Z,1.27
2022-10-31T06:36:47.851Z,1.00
2022-10-31T06:39:17.771Z,1.10
2022-10-31T06:41:45.055Z,1.10
2022-10-31T06:44:12.252Z,1.55
2022-10-31T06:46:39.454Z,1.10
2022-10-31T06:49:06.771Z,1.45
2022-10-31T06:51:33.962Z,1.17
2022-10-31T06:54:01.159Z,1.23
2022-10-31T06:56:28.382Z,1.75
2022-10-31T06:58:55.623Z,1.75
2022-10-31T07:01:24.613Z,1.10
2022-10-31T07:03:51.943Z,1.75
2022-10-31T07:06:19.177Z,1.10
2022-10-31T07:08:46.476Z,1.15
2022-10-31T07:11:13.685Z,1.20
2022-10-31T07:13:40.970Z,1.00
2022-10-31T07:16:08.396Z,1.00
2022-10-31T07:18:35.902Z,1.20
2022-10-31T07:21:03.100Z,1.08
2022-10-31T07:23:30.303Z,0.85
2022-10-31T07:25:58.291Z,0.80
2022-10-31T07:28:25.751Z,1.25
2022-10-31T07:30:54.009Z,1.67
2022-10-31T07:33:21.279Z,1.05
2022-10-31T07:35:48.739Z,1.05
2022-10-31T07:38:19.794Z,0.90
2022-10-31T07:40:50.875Z,0.98
2022-10-31T07:43:18.149Z,1.23
2022-10-31T07:45:50.520Z,1.33
2022-10-31T07:48:17.740Z,1.10
2022-10-31T07:50:45.489Z,1.10
2022-10-31T07:53:13.368Z,0.90
2022-10-31T07:55:40.987Z,1.08
2022-10-31T07:58:18.212Z,1.42
2022-10-31T08:00:46.556Z,0.90
2022-10-31T08:03:15.041Z,0.90
2022-10-31T08:05:42.723Z,0.90
2022-10-31T08:08:10.329Z,1.10
2022-10-31T08:10:37.932Z,0.70
2022-10-31T08:13:09.634Z,1.15
2022-10-31T08:15:39.208Z,0.87
2022-10-31T08:18:07.386Z,0.82
2022-10-31T08:20:34.846Z,0.90
2022-10-31T08:23:03.608Z,0.68
2022-10-31T08:25:35.629Z,0.80
2022-10-31T08:28:06.162Z,1.27
2022-10-31T08:30:34.155Z,0.80
2022-10-31T08:33:05.514Z,0.80
2022-10-31T08:35:33.445Z,0.90
2022-10-31T08:38:01.398Z,1.10
2022-10-31T08:40:29.743Z,0.98
2022-10-31T08:42:58.161Z,1.08
2022-10-31T08:45:25.692Z,0.80
2022-10-31T08:47:53.044Z,0.70
2022-10-31T08:50:20.407Z,0.90
2022-10-31T08:53:04.238Z,0.90
2022-10-31T08:55:32.811Z,0.90
2022-10-31T08:58:01.563Z,0.70
2022-10-31T09:00:28.990Z,0.70
2022-10-31T09:02:57.361Z,1.00
2022-10-31T09:05:24.716Z,1.10
2022-10-31T09:07:52.022Z,0.80
2022-10-31T09:10:19.248Z,1.05
2022-10-31T09:12:46.460Z,0.70
2022-10-31T09:15:14.195Z,0.60
2022-10-31T09:17:47.459Z,0.70
2022-10-31T09:20:14.736Z,0.93
2022-10-31T09:22:42.716Z,0.80
2022-10-31T09:25:10.258Z,1.10
2022-10-31T09:27:37.452Z,0.70
2022-10-31T09:30:05.558Z,0.82
2022-10-31T09:32:32.836Z,0.90
2022-10-31T09:35:02.454Z,0.60
2022-10-31T09:37:30.695Z,0.60
2022-10-31T09:39:57.935Z,1.30
2022-10-31T09:42:38.086Z,0.85
2022-10-31T09:45:12.909Z,1.00
2022-10-31T09:47:46.258Z,0.80
2022-10-31T09:50:19.874Z,0.70
2022-10-31T09:52:53.892Z,0.50
2022-10-31T09:55:27.347Z,0.98
2022-10-31T09:57:54.907Z,0.65
2022-10-31T10:00:23.730Z,0.57
2022-10-31T10:03:15.144Z,0.40
2022-10-31T10:05:54.028Z,0.50
2022-10-31T10:08:23.283Z,0.50
2022-10-31T10:10:52.175Z,0.77
2022-10-31T10:13:38.468Z,0.57
2022-10-31T10:16:23.615Z,0.70
2022-10-31T10:19:20.165Z,0.68
2022-10-31T10:21:53.183Z,0.50
2022-10-31T10:24:28.091Z,0.40
2022-10-31T10:27:01.373Z,0.65
2022-10-31T10:29:38.058Z,0.50
2022-10-31T10:32:12.293Z,0.50
2022-10-31T10:34:44.664Z,0.70
2022-10-31T10:37:26.801Z,0.50
2022-10-31T10:39:58.330Z,0.50
2022-10-31T10:42:45.735Z,0.60
2022-10-31T10:45:36.319Z,0.60
2022-10-31T10:48:10.571Z,0.52
2022-10-31T10:50:41.024Z,0.50
2022-10-31T10:53:21.964Z,0.50
2022-10-31T10:55:55.235Z,0.70
2022-10-31T10:58:22.590Z,0.60
2022-10-31T11:00:57.706Z,0.43
2022-10-31T11:03:25.079Z,0.50
2022-10-31T11:05:59.278Z,0.60
2022-10-31T11:08:27.880Z,0.50
2022-10-31T11:11:05.607Z,0.60
2022-10-31T11:13:34.278Z,0.60
2022-10-31T11:16:06.597Z,0.50
2022-10-31T11:18:34.632Z,0.60
2022-10-31T11:21:06.460Z,0.93
2022-10-31T11:23:34.510Z,0.50
2022-10-31T11:26:02.837Z,1.20
2022-10-31T11:28:31.108Z,1.10
2022-10-31T11:30:59.994Z,0.90
2022-10-31T11:33:30.132Z,0.88
2022-10-31T11:35:58.459Z,0.65
2022-10-31T11:38:31.103Z,0.70
2022-10-31T11:41:18.927Z,0.60
2022-10-31T11:44:00.765Z,0.93
2022-10-31T11:46:28.003Z,1.00
2022-10-31T11:48:56.111Z,0.80
2022-10-31T11:51:28.481Z,0.88
2022-10-31T11:54:00.164Z,0.60
2022-10-31T11:56:39.847Z,0.80
2022-10-31T11:59:16.734Z,1.15
2022-10-31T12:01:48.184Z,0.85
2022-10-31T12:04:16.858Z,0.80
2022-10-31T12:06:47.012Z,0.93
2022-10-31T12:09:31.153Z,1.05
2022-10-31T12:12:07.530Z,0.90
2022-10-31T12:14:34.782Z,0.88
2022-10-31T12:17:07.222Z,0.80
2022-10-31T12:19:38.316Z,0.80
2022-10-31T12:22:18.718Z,0.63
2022-10-31T12:25:14.933Z,0.80
2022-10-31T12:27:48.118Z,0.90
2022-10-31T12:30:41.531Z,0.75
2022-10-31T12:33:23.199Z,0.70
2022-10-31T12:35:59.546Z,0.82
2022-10-31T12:38:32.678Z,0.63
2022-10-31T12:41:19.073Z,0.65
2022-10-31T12:43:52.242Z,0.60
2022-10-31T12:46:28.881Z,0.50
2022-10-31T12:49:05.487Z,0.60
2022-10-31T12:51:41.933Z,0.70
2022-10-31T12:54:16.268Z,1.00
2022-10-31T12:57:05.292Z,0.60
2022-10-31T12:59:35.465Z,0.70
2022-10-31T13:02:21.368Z,0.90
2022-10-31T13:05:00.196Z,0.70
2022-10-31T13:07:30.954Z,0.98
2022-10-31T13:10:04.040Z,1.08
2022-10-31T13:12:34.793Z,0.82
2022-10-31T13:15:16.958Z,1.05
2022-10-31T13:17:46.888Z,0.50
2022-10-31T13:20:26.562Z,1.17
2022-10-31T13:22:56.404Z,0.70
2022-10-31T13:25:30.111Z,0.98
2022-10-31T13:28:00.135Z,1.63
2022-10-31T13:30:39.678Z,0.90
2022-10-31T13:33:13.434Z,1.25
2022-10-31T13:35:55.704Z,0.90
2022-10-31T13:38:31.800Z,0.95
2022-10-31T13:41:23.290Z,1.00
2022-10-31T13:43:50.473Z,1.10
2022-10-31T13:46:25.012Z,0.98
2022-10-31T13:48:52.229Z,1.88
2022-10-31T13:51:29.838Z,1.20
2022-10-31T13:53:56.990Z,1.75
2022-10-31T13:56:26.156Z,1.58
2022-10-31T13:59:05.325Z,2.00
2022-10-31T14:01:34.133Z,2.17
2022-10-31T14:04:15.664Z,1.50
2022-10-31T14:06:59.808Z,1.65
2022-10-31T14:09:32.785Z,2.72
2022-10-31T14:12:02.451Z,2.30
2022-10-31T14:14:33.804Z,2.20
2022-10-31T14:17:01.121Z,2.30
2022-10-31T14:19:28.809Z,1.88
2022-10-31T14:21:56.096Z,2.00
2022-10-31T14:24:26.481Z,2.45
2022-10-31T14:27:04.703Z,2.65
2022-10-31T14:29:32.962Z,3.60
2022-10-31T14:32:11.936Z,3.13
2022-10-31T14:34:41.928Z,2.92
2022-10-31T14:37:27.847Z,2.55
2022-10-31T14:39:55.080Z,3.47
2022-10-31T14:42:37.390Z,3.05
2022-10-31T14:45:12.975Z,2.78
2022-10-31T14:47:43.197Z,2.30
2022-10-31T14:50:19.374Z,3.00
2022-10-31T14:52:48.779Z,2.58
2022-10-31T14:55:16.363Z,2.65
2022-10-31T14:57:50.665Z,2.53
2022-10-31T15:00:19.645Z,2.88
2022-10-31T15:02:52.344Z,2.85
2022-10-31T15:07:59.950Z,3.15
2022-10-31T15:10:35.860Z,2.33
2022-10-31T15:13:19.083Z,2.38
2022-10-31T15:15:51.205Z,2.90
2022-10-31T15:18:20.993Z,3.15
2022-10-31T15:20:48.275Z,3.10
2022-10-31T15:23:26.667Z,2.40
2022-10-31T15:26:00.505Z,2.65
2022-10-31T15:28:28.015Z,3.08
2022-10-31T15:30:56.155Z,4.05
2022-10-31T15:33:37.554Z,3.80
2022-10-31T15:36:06.062Z,3.60
2022-10-31T15:38:33.914Z,3.85
2022-10-31T15:41:03.361Z,4.70
2022-10-31T15:43:34.883Z,4.65
2022-10-31T15:46:03.239Z,4.47
2022-10-31T15:48:32.920Z,4.25
2022-10-31T15:51:00.519Z,3.38
2022-10-31T15:53:29.073Z,3.58
2022-10-31T15:55:57.779Z,3.40
2022-10-31T15:58:25.725Z,3.60
2022-10-31T16:01:00.695Z,4.40
2022-10-31T16:03:32.212Z,3.72
2022-10-31T16:06:00.934Z,3.42
2022-10-31T16:08:31.275Z,4.25
2022-10-31T16:11:00.369Z,3.60
2022-10-31T16:13:32.153Z,4.90
2022-10-31T16:16:33.472Z,4.30
2022-10-31T16:18:50.856Z,5.22
2022-10-31T16:21:24.706Z,6.22
2022-10-31T16:23:58.051Z,5.43
2022-10-31T16:26:26.341Z,5.65
2022-10-31T16:29:03.265Z,6.47
2022-10-31T16:31:39.892Z,6.72
2022-10-31T16:34:16.965Z,6.05
2022-10-31T16:36:44.339Z,7.95
2022-10-31T16:39:11.722Z,7.40
2022-10-31T16:41:43.486Z,8.38
2022-10-31T16:44:19.428Z,8.07
2022-10-31T16:46:46.786Z,8.57
2022-10-31T16:49:16.561Z,9.82
2022-10-31T16:51:44.070Z,9.05
2022-10-31T16:54:11.815Z,8.90
2022-10-31T16:56:39.682Z,9.73
2022-10-31T16:59:13.316Z,9.73
2022-10-31T17:01:46.108Z,10.68
2022-10-31T17:04:15.335Z,9.95
2022-10-31T17:06:43.052Z,9.77
2022-10-31T17:09:10.834Z,10.75
2022-10-31T17:11:38.983Z,10.50
2022-10-31T17:14:06.388Z,11.00
2022-10-31T17:16:33.712Z,9.10
2022-10-31T17:19:00.953Z,9.98
2022-10-31T17:21:28.195Z,10.38
2022-10-31T17:23:55.546Z,10.27
2022-10-31T17:26:23.235Z,9.48
2022-10-31T17:28:50.426Z,9.25
2022-10-31T17:31:29.349Z,8.82
2022-10-31T17:34:02.058Z,9.48
2022-10-31T17:36:31.034Z,8.70
2022-10-31T17:38:58.444Z,8.38
2022-10-31T17:41:25.673Z,8.90
2022-10-31T17:44:00.474Z,8.43
2022-10-31T17:46:28.865Z,9.20
2022-10-31T17:48:56.877Z,8.63
2022-10-31T17:51:25.169Z,8.32
2022-10-31T17:53:52.437Z,8.27
2022-10-31T17:56:19.769Z,8.02
2022-10-31T17:58:48.423Z,9.13
2022-10-31T18:01:16.488Z,9.43
2022-10-31T18:03:44.115Z,8.65
2022-10-31T18:06:11.853Z,7.68
2022-10-31T18:08:41.633Z,7.95
2022-10-31T18:11:14.740Z,8.75
2022-10-31T18:13:42.192Z,8.23
2022-10-31T18:16:13.481Z,8.88
2022-10-31T18:18:40.851Z,9.18
2022-10-31T18:21:08.050Z,7.60
2022-10-31T18:23:35.337Z,8.55
2022-10-31T18:26:02.694Z,8.98
2022-10-31T18:28:29.941Z,8.20
2022-10-31T18:31:00.494Z,7.60
2022-10-31T18:33:27.903Z,8.27
2022-10-31T18:35:55.172Z,8.32
2022-10-31T18:38:22.672Z,8.38
2022-10-31T18:40:49.845Z,7.85
2022-10-31T18:43:17.253Z,7.28
2022-10-31T18:45:47.899Z,8.15
2022-10-31T18:48:17.472Z,8.10
2022-10-31T18:50:44.966Z,7.85
2022-10-31T18:53:12.459Z,7.53
2022-10-31T18:55:43.985Z,8.27
2022-10-31T18:58:14.823Z,8.05
2022-10-31T19:00:42.074Z,7.80
2022-10-31T19:03:10.400Z,8.30
2022-10-31T19:05:37.689Z,8.73
2022-10-31T19:08:05.128Z,6.80
2022-10-31T19:10:32.310Z,9.10
2022-10-31T19:12:59.717Z,9.40
2022-10-31T19:15:27.161Z,8.05
2022-10-31T19:17:55.293Z,9.00
2022-10-31T19:20:22.703Z,8.00
2022-10-31T19:22:50.087Z,7.88
2022-10-31T19:25:17.322Z,7.70
2022-10-31T19:27:44.713Z,8.52
2022-10-31T19:30:12.548Z,7.35
2022-10-31T19:32:39.943Z,5.72
2022-10-31T19:35:11.487Z,6.95
2022-10-31T19:37:39.679Z,7.18
2022-10-31T19:40:08.042Z,7.85
2022-10-31T19:42:35.884Z,8.95
2022-10-31T19:45:03.633Z,9.07
2022-10-31T19:47:30.924Z,8.35
2022-10-31T19:49:58.103Z,8.43
2022-10-31T19:52:25.292Z,6.90
2022-10-31T19:54:52.506Z,8.02
2022-10-31T19:57:35.832Z,6.35
2022-10-31T20:00:07.258Z,7.38
2022-10-31T20:02:34.606Z,7.57
2022-10-31T20:05:02.257Z,7.20
2022-10-31T20:07:29.441Z,8.20
2022-10-31T20:09:56.736Z,8.02
2022-10-31T20:12:23.950Z,7.13
2022-10-31T20:14:51.203Z,6.00
2022-10-31T20:17:18.472Z,5.68
2022-10-31T20:19:45.880Z,6.82
2022-10-31T20:22:13.287Z,7.90
2022-10-31T20:24:40.603Z,6.68
2022-10-31T20:27:07.810Z,7.10
2022-10-31T20:29:35.049Z,7.90
2022-10-31T20:32:02.233Z,7.88
2022-10-31T20:34:29.720Z,8.45
2022-10-31T20:36:57.008Z,7.53
2022-10-31T20:39:24.166Z,8.20
2022-10-31T20:41:51.414Z,6.80
2022-10-31T20:44:18.890Z,7.72
2022-10-31T20:46:46.101Z,8.82
2022-10-31T20:49:13.324Z,7.53
2022-10-31T20:51:40.557Z,7.10
2022-10-31T20:54:08.085Z,6.10
2022-10-31T20:56:35.432Z,7.03
2022-10-31T20:59:02.659Z,6.85
2022-10-31T21:01:31.326Z,6.82
2022-10-31T21:03:58.887Z,4.68
2022-10-31T21:06:26.516Z,4.63
2022-10-31T21:08:53.980Z,4.72
2022-10-31T21:11:23.613Z,6.05
2022-10-31T21:13:50.976Z,5.95
2022-10-31T21:16:20.284Z,5.88
2022-10-31T21:18:49.277Z,5.82
2022-10-31T21:21:29.041Z,5.70
2022-10-31T21:24:04.273Z,4.63
2022-10-31T21:26:33.571Z,5.53
2022-10-31T21:29:01.391Z,5.07
2022-10-31T21:31:28.581Z,5.07
2022-10-31T21:33:56.061Z,3.60
2022-10-31T21:36:23.331Z,4.22
2022-10-31T21:38:53.642Z,4.38
2022-10-31T21:41:21.241Z,4.25
2022-10-31T21:43:49.874Z,4.47
2022-10-31T21:46:18.580Z,4.18
2022-10-31T21:48:46.577Z,4.80
2022-10-31T21:51:15.594Z,3.42
2022-10-31T21:54:02.092Z,2.80
2022-10-31T21:56:29.549Z,3.13
2022-10-31T21:58:57.093Z,4.13
2022-10-31T22:01:25.151Z,3.33
2022-10-31T22:03:52.538Z,2.33
2022-10-31T22:06:19.843Z,1.88
2022-10-31T22:08:47.091Z,2.00
2022-10-31T22:11:16.326Z,1.25
2022-10-31T22:13:45.936Z,1.52
2022-10-31T22:16:14.385Z,1.52
2022-10-31T22:18:42.180Z,1.35
2022-10-31T22:21:12.252Z,1.20
2022-10-31T22:23:39.613Z,0.98
2022-10-31T22:26:08.237Z,1.13
2022-10-31T22:28:35.816Z,1.88
2022-10-31T22:31:07.590Z,1.02
2022-10-31T22:33:37.496Z,1.55
2022-10-31T22:36:06.222Z,1.25
2022-10-31T22:38:40.387Z,2.30
2022-10-31T22:41:08.554Z,1.08
2022-10-31T22:43:36.132Z,1.67
2022-10-31T22:46:05.262Z,1.17
2022-10-31T22:48:37.520Z,1.17
2022-10-31T22:51:08.416Z,1.40
2022-10-31T22:53:35.990Z,2.50
2022-10-31T22:56:03.739Z,1.55
2022-10-31T22:58:31.217Z,2.05
2022-10-31T23:00:58.449Z,2.63
2022-10-31T23:03:25.968Z,2.60
2022-10-31T23:05:58.514Z,1.65
2022-10-31T23:08:26.306Z,1.73
2022-10-31T23:10:53.821Z,1.73
2022-10-31T23:13:39.866Z,1.20
2022-10-31T23:16:10.480Z,1.52
2022-10-31T23:18:49.707Z,1.23
2022-10-31T23:21:37.081Z,1.48
2022-10-31T23:24:04.357Z,1.38
2022-10-31T23:26:50.225Z,1.27
2022-10-31T23:29:17.418Z,1.35
2022-10-31T23:31:44.579Z,1.27
2022-10-31T23:34:11.795Z,2.22
2022-10-31T23:36:38.998Z,2.17
2022-10-31T23:39:07.305Z,2.05
2022-10-31T23:41:34.568Z,2.35
2022-10-31T23:44:01.781Z,2.47
2022-10-31T23:46:28.993Z,1.95
2022-10-31T23:48:56.173Z,1.42
2022-10-31T23:51:23.546Z,2.38
2022-10-31T23:53:50.720Z,1.40
2022-10-31T23:56:17.913Z,1.55
2022-10-31T23:58:45.117Z,1.75
